createdAt,value
2023-01-09T05:37:23.467Z,11.58
2023-01-09T05:40:40.358Z,11.58
2023-01-09T05:43:54.530Z,11.44
2023-01-09T05:47:08.473Z,11.71
2023-01-09T05:50:22.504Z,11.65
2023-01-09T05:53:37.899Z,11.61
2023-01-09T05:56:51.847Z,11.66
2023-01-09T06:00:06.583Z,11.72
2023-01-09T06:03:20.522Z,11.58
2023-01-09T06:06:34.498Z,11.27
2023-01-09T06:09:49.855Z,11.69
2023-01-09T06:13:03.820Z,11.74
2023-01-09T06:16:18.480Z,11.76
2023-01-09T06:19:32.421Z,11.76
2023-01-09T06:22:46.335Z,11.41
2023-01-09T06:26:01.741Z,11.53
2023-01-09T06:29:15.630Z,11.77
2023-01-09T06:32:29.537Z,12.20
2023-01-09T06:35:43.406Z,11.88
2023-01-09T06:38:57.778Z,12.30
2023-01-09T06:42:13.118Z,11.83
2023-01-09T06:45:27.216Z,11.19
2023-01-09T06:48:41.124Z,11.66
2023-01-09T06:51:55.060Z,11.44
2023-01-09T06:55:10.089Z,11.09
2023-01-09T06:58:27.047Z,11.52
2023-01-09T07:01:41.371Z,11.25
2023-01-09T07:04:56.813Z,11.76
2023-01-09T07:08:10.769Z,11.90
2023-01-09T07:11:25.152Z,11.89
2023-01-09T07:14:40.507Z,12.03
2023-01-09T07:17:54.605Z,11.74
2023-01-09T07:21:08.803Z,11.46
2023-01-09T07:24:22.744Z,10.85
2023-01-09T07:27:36.603Z,11.39
2023-01-09T07:30:52.077Z,11.57
2023-01-09T07:34:05.992Z,11.82
2023-01-09T07:37:19.976Z,11.84
2023-01-09T07:40:33.933Z,11.36
2023-01-09T07:43:47.839Z,11.34
2023-01-09T07:47:02.813Z,11.40
2023-01-09T07:50:16.816Z,11.31
2023-01-09T07:53:31.237Z,11.44
2023-01-09T07:56:45.540Z,11.04
2023-01-09T08:00:01.188Z,10.74
2023-01-09T08:03:16.495Z,11.12
2023-01-09T08:06:30.780Z,11.01
2023-01-09T08:09:44.778Z,11.17
2023-01-09T08:12:58.756Z,11.03
2023-01-09T08:16:12.929Z,10.99
2023-01-09T08:19:28.633Z,10.72
2023-01-09T08:22:42.819Z,11.46
2023-01-09T08:25:56.802Z,10.91
2023-01-09T08:29:11.271Z,11.21
2023-01-09T08:32:29.881Z,11.30
2023-01-09T08:35:46.631Z,11.03
2023-01-09T08:39:01.348Z,10.88
2023-01-09T08:42:32.630Z,10.99
2023-01-09T08:46:15.795Z,11.01
2023-01-09T08:49:29.782Z,10.39
2023-01-09T08:52:45.132Z,10.24
2023-01-09T08:55:59.271Z,9.78
2023-01-09T08:59:13.236Z,10.27
2023-01-09T09:02:27.328Z,11.08
2023-01-09T09:05:41.314Z,10.94
2023-01-09T09:08:56.676Z,10.86
2023-01-09T09:12:10.647Z,11.02
2023-01-09T09:15:25.340Z,10.19
2023-01-09T09:18:40.217Z,10.20
2023-01-09T09:21:54.200Z,11.12
2023-01-09T09:25:10.221Z,11.50
2023-01-09T09:28:24.219Z,11.40
2023-01-09T09:31:38.775Z,11.17
2023-01-09T09:34:52.770Z,11.20
2023-01-09T09:38:06.882Z,10.80
2023-01-09T09:42:10.487Z,11.15
2023-01-09T09:45:28.554Z,10.85
2023-01-09T09:48:44.786Z,10.44
2023-01-09T09:52:00.976Z,10.59
2023-01-09T09:55:17.947Z,11.04
2023-01-09T09:58:37.191Z,10.90
2023-01-09T10:01:54.249Z,11.03
2023-01-09T10:05:13.176Z,10.46
2023-01-09T10:08:30.728Z,10.82
2023-01-09T10:11:46.150Z,11.20
2023-01-09T10:15:02.290Z,11.24
2023-01-09T10:18:20.805Z,11.27
2023-01-09T10:21:36.723Z,11.00
2023-01-09T10:24:57.228Z,11.61
2023-01-09T10:28:28.188Z,11.41
2023-01-09T10:31:48.812Z,11.11
2023-01-09T10:35:11.519Z,11.59
2023-01-09T10:38:26.846Z,11.50
2023-01-09T10:41:42.512Z,11.85
2023-01-09T10:44:58.869Z,11.69
2023-01-09T10:48:20.790Z,10.68
2023-01-09T10:51:38.341Z,11.62
2023-01-09T10:54:56.195Z,11.29
2023-01-09T10:58:12.970Z,11.22
2023-01-09T11:01:29.103Z,10.75
2023-01-09T11:04:44.439Z,11.67
2023-01-09T11:07:59.742Z,11.64
2023-01-09T11:11:14.058Z,11.58
2023-01-09T11:14:31.572Z,12.16
2023-01-09T11:17:45.579Z,11.98
2023-01-09T11:21:04.315Z,12.14
2023-01-09T11:24:29.701Z,11.80
2023-01-09T11:27:43.648Z,11.89
2023-01-09T11:30:59.882Z,12.08
2023-01-09T11:34:17.403Z,11.91
2023-01-09T11:37:32.746Z,12.01
2023-01-09T11:40:49.480Z,12.46
2023-01-09T11:44:04.445Z,12.09
2023-01-09T11:47:28.934Z,12.44
2023-01-09T11:50:43.051Z,12.86
2023-01-09T11:54:12.245Z,12.48
2023-01-09T11:57:26.295Z,13.33
2023-01-09T12:00:42.851Z,13.16
2023-01-09T12:04:06.345Z,12.55
2023-01-09T12:07:31.243Z,12.75
2023-01-09T12:11:06.021Z,13.03
2023-01-09T12:14:33.886Z,12.86
2023-01-09T12:18:09.691Z,12.76
2023-01-09T12:21:30.763Z,12.48
2023-01-09T12:24:55.132Z,12.04
2023-01-09T12:28:21.760Z,11.59
2023-01-09T12:31:45.717Z,11.70
2023-01-09T12:35:01.210Z,11.51
2023-01-09T12:38:27.854Z,11.74
2023-01-09T12:41:49.551Z,11.90
2023-01-09T12:45:17.465Z,12.04
2023-01-09T12:48:59.997Z,11.75
2023-01-09T12:52:17.497Z,12.22
2023-01-09T12:55:33.939Z,11.75
2023-01-09T12:58:50.474Z,11.57
2023-01-09T13:02:21.178Z,11.67
2023-01-09T13:05:36.857Z,12.03
2023-01-09T13:08:52.785Z,12.31
2023-01-09T13:12:09.412Z,12.31
2023-01-09T13:15:29.084Z,11.68
2023-01-09T13:18:45.518Z,11.77
2023-01-09T13:21:59.992Z,11.35
2023-01-09T13:25:28.386Z,11.53
2023-01-09T13:28:43.830Z,11.65
2023-01-09T13:32:25.184Z,11.53
2023-01-09T13:35:51.076Z,12.06
2023-01-09T13:39:05.172Z,11.64
2023-01-09T13:42:39.270Z,11.67
2023-01-09T13:45:53.217Z,11.82
2023-01-09T13:49:08.966Z,12.08
2023-01-09T13:52:36.720Z,12.68
2023-01-09T13:56:06.225Z,11.96
2023-01-09T13:59:28.337Z,12.65
2023-01-09T14:02:58.196Z,13.23
2023-01-09T14:06:21.696Z,12.36
2023-01-09T14:09:38.044Z,11.82
2023-01-09T14:12:52.254Z,11.97
2023-01-09T14:16:07.618Z,12.45
2023-01-09T14:19:37.390Z,12.56
2023-01-09T14:22:56.476Z,12.55
2023-01-09T14:26:20.047Z,13.05
2023-01-09T14:29:44.817Z,12.97
2023-01-09T14:32:59.081Z,12.85
2023-01-09T14:36:18.735Z,12.84
2023-01-09T14:39:32.999Z,13.05
2023-01-09T14:42:48.403Z,13.30
2023-01-09T14:46:06.173Z,13.05
2023-01-09T14:49:24.038Z,13.20
2023-01-09T14:52:39.607Z,13.33
2023-01-09T14:55:54.770Z,13.44
2023-01-09T14:59:13.899Z,13.45
2023-01-09T15:02:29.226Z,13.38
2023-01-09T15:05:43.508Z,13.60
2023-01-09T15:08:59.095Z,13.37
2023-01-09T15:12:16.829Z,13.49
2023-01-09T15:15:32.194Z,13.59
2023-01-09T15:18:46.351Z,13.78
2023-01-09T15:22:02.144Z,13.50
2023-01-09T15:25:37.713Z,13.38
2023-01-09T15:28:53.060Z,13.30
2023-01-09T15:32:10.910Z,13.08
2023-01-09T15:35:24.940Z,12.95
2023-01-09T15:38:40.168Z,12.73
2023-01-09T15:42:11.784Z,12.55
2023-01-09T15:45:27.669Z,12.68
2023-01-09T15:48:42.991Z,12.95
2023-01-09T15:51:56.900Z,12.75
2023-01-09T15:55:35.786Z,12.81
2023-01-09T15:58:49.812Z,12.60
2023-01-09T16:02:22.495Z,12.66
2023-01-09T16:05:40.471Z,12.59
2023-01-09T16:08:56.277Z,12.31
2023-01-09T16:12:18.878Z,12.41
2023-01-09T16:15:34.235Z,12.60
2023-01-09T16:18:51.606Z,12.28
